Terminal Aerodrome Forecast
Issued by NWS

Home | Current Version | Previous Version | Text Only | Print | Product List | Glossary On
Versions: 1 2 3 4 5 6 7 8 9 10 11 12 13 14 15 16 17 18 19
000
FTUS41 KOKX 210200 AAA
TAFSWF
TAF AMD
KSWF 210238Z 2103/2206 VRB03KT P6SM SCT040 OVC100
     FM210500 00000KT P6SM BKN040
     FM211500 13005KT P6SM SCT025 BKN040
      AMD NOT SKED=

USA.gov is the U.S. government's official web portal to all federal, state and local government web resources and services.